createdAt,value
2016-03-04T00:00:21.947Z,3.33
2016-03-04T00:01:22.091Z,3.24
2016-03-04T00:02:22.110Z,3.4
2016-03-04T00:03:22.097Z,3.31
2016-03-04T00:04:22.115Z,3.29
2016-03-04T00:05:22.101Z,3.33
2016-03-04T00:06:22.088Z,3.33
2016-03-04T00:07:22.107Z,3.33
2016-03-04T00:08:22.094Z,3.4
2016-03-04T00:09:22.097Z,3.27
2016-03-04T00:10:22.100Z,3.19
2016-03-04T00:11:22.102Z,3.21
2016-03-04T00:12:22.090Z,3.36
2016-03-04T00:13:22.076Z,3.33
2016-03-04T00:14:22.095Z,3.29
2016-03-04T00:15:22.098Z,3.34
2016-03-04T00:16:22.100Z,3.4
2016-03-04T00:17:22.103Z,3.41
2016-03-04T00:18:22.090Z,3.41
2016-03-04T00:19:22.092Z,3.33
2016-03-04T00:20:22.095Z,3.22
2016-03-04T00:21:22.082Z,3.3
2016-03-04T00:22:22.116Z,3.27
2016-03-04T00:23:22.087Z,3.3
2016-03-04T00:24:22.090Z,3.22
2016-03-04T00:25:22.078Z,3.26
2016-03-04T00:26:22.096Z,3.31
2016-03-04T00:27:22.082Z,3.41
2016-03-04T00:28:22.086Z,3.37
2016-03-04T00:29:22.088Z,3.3
2016-03-04T00:30:22.075Z,3.37
2016-03-04T00:31:21.926Z,3.29
2016-03-04T00:32:22.074Z,3.36
2016-03-04T00:33:22.093Z,3.37
2016-03-04T00:34:22.096Z,3.4
2016-03-04T00:35:22.099Z,3.3
2016-03-04T00:36:22.085Z,3.33
2016-03-04T00:37:22.072Z,3.4
2016-03-04T00:38:22.075Z,3.33
2016-03-04T00:39:22.079Z,3.36
2016-03-04T00:40:22.081Z,3.37
2016-03-04T00:41:22.084Z,3.33
2016-03-04T00:42:22.101Z,3.31
2016-03-04T00:43:22.073Z,3.36
2016-03-04T00:44:22.075Z,3.41
2016-03-04T00:45:22.078Z,3.37
2016-03-04T00:46:22.081Z,3.37
2016-03-04T00:47:22.100Z,3.34
2016-03-04T00:48:22.071Z,3.31
2016-03-04T00:49:22.089Z,3.31
2016-03-04T00:50:22.076Z,3.37
2016-03-04T00:51:22.078Z,3.34
2016-03-04T00:52:22.082Z,3.31
2016-03-04T00:53:22.069Z,3.36
2016-03-04T00:54:22.072Z,3.26
2016-03-04T00:55:22.075Z,3.26
2016-03-04T00:56:22.078Z,3.31
2016-03-04T00:57:22.080Z,3.36
2016-03-04T00:58:22.083Z,3.34
2016-03-04T00:59:22.070Z,3.3
2016-03-04T01:00:22.073Z,3.29
2016-03-04T01:01:22.060Z,3.33
2016-03-04T01:02:22.063Z,3.24
2016-03-04T01:03:22.066Z,3.33
2016-03-04T01:04:22.083Z,3.36
2016-03-04T01:05:22.087Z,3.31
2016-03-04T01:06:22.074Z,3.33
2016-03-04T01:07:22.061Z,3.22
2016-03-04T01:08:22.063Z,3.29
2016-03-04T01:09:22.066Z,3.22
2016-03-04T01:10:22.085Z,3.31
2016-03-04T01:11:22.072Z,3.36
2016-03-04T01:12:22.074Z,3.26
2016-03-04T01:13:22.061Z,3.33
2016-03-04T01:14:22.064Z,3.33
2016-03-04T01:15:22.066Z,3.31
2016-03-04T01:16:22.069Z,3.3
2016-03-04T01:17:22.057Z,3.3
2016-03-04T01:18:22.074Z,3.24
2016-03-04T01:19:22.061Z,3.22
2016-03-04T01:20:22.065Z,3.15
2016-03-04T01:21:22.067Z,3.18
2016-03-04T01:22:22.070Z,3.09
2016-03-04T01:23:22.072Z,3.16
2016-03-04T01:24:22.090Z,3.19
2016-03-04T01:25:22.078Z,3.08
2016-03-04T01:26:22.065Z,3.13
2016-03-04T01:27:22.067Z,3.18
2016-03-04T01:28:22.054Z,3.18
2016-03-04T01:29:22.057Z,3.08
2016-03-04T01:30:22.059Z,3.18
2016-03-04T01:31:22.062Z,3.08
2016-03-04T01:32:22.065Z,3.13
2016-03-04T01:33:22.053Z,3.11
2016-03-04T01:34:22.055Z,3.13
2016-03-04T01:35:22.058Z,3.12
2016-03-04T01:36:22.060Z,3.15
2016-03-04T01:37:22.063Z,3.03
2016-03-04T01:38:22.049Z,3.21
2016-03-04T01:39:22.069Z,3.11
2016-03-04T01:40:22.055Z,3.08
2016-03-04T01:41:22.058Z,3.12
2016-03-04T01:42:22.045Z,3.15
2016-03-04T01:43:28.344Z,3.15
2016-03-04T01:44:22.176Z,3.16
2016-03-04T01:45:22.179Z,3.16
2016-03-04T01:46:22.182Z,3.16
2016-03-04T01:47:22.168Z,3.15
2016-03-04T01:48:22.046Z,3.08
2016-03-04T01:49:22.049Z,3.13
2016-03-04T01:50:22.067Z,3.03
2016-03-04T01:51:22.069Z,3.15
2016-03-04T01:52:22.057Z,3.18
2016-03-04T01:53:22.044Z,3.11
2016-03-04T01:54:22.062Z,3.15
2016-03-04T01:55:22.048Z,3.03
2016-03-04T01:56:22.067Z,3.15
2016-03-04T01:57:22.054Z,3.05
2016-03-04T01:58:22.041Z,3.05
2016-03-04T01:59:22.044Z,3.01
2016-03-04T02:00:22.047Z,3.03
2016-03-04T02:01:22.050Z,3.11
2016-03-04T02:02:22.052Z,3.03
2016-03-04T02:03:22.040Z,3.11
2016-03-04T02:04:22.042Z,3.06
2016-03-04T02:05:22.045Z,3.05
2016-03-04T02:06:22.047Z,3.03
2016-03-04T02:07:22.049Z,3.06
2016-03-04T02:08:22.036Z,3.05
2016-03-04T02:09:22.039Z,3.03
2016-03-04T02:10:22.041Z,3.05
2016-03-04T02:11:22.044Z,3.05
2016-03-04T02:12:22.063Z,3
2016-03-04T02:13:22.049Z,3.03
2016-03-04T02:14:22.034Z,3.12
2016-03-04T02:15:22.037Z,2.94
2016-03-04T02:16:22.040Z,2.95
2016-03-04T02:17:22.043Z,3.01
2016-03-04T02:18:22.029Z,3.03
2016-03-04T02:19:22.048Z,3.01
2016-03-04T02:20:22.035Z,3
2016-03-04T02:21:22.037Z,3.05
2016-03-04T02:22:22.040Z,2.94
2016-03-04T02:23:22.027Z,2.91
2016-03-04T02:24:22.030Z,2.85
2016-03-04T02:25:22.033Z,2.95
2016-03-04T02:26:22.036Z,2.9
2016-03-04T02:27:22.027Z,2.88
2016-03-04T02:28:22.045Z,2.82
2016-03-04T02:29:22.032Z,2.9
2016-03-04T02:30:22.035Z,2.82
2016-03-04T02:31:22.053Z,2.87
2016-03-04T02:32:22.025Z,2.79
2016-03-04T02:33:22.027Z,2.8
2016-03-04T02:34:22.030Z,2.77
2016-03-04T02:35:22.033Z,2.7
2016-03-04T02:36:22.036Z,2.77
2016-03-04T02:37:22.038Z,2.8
2016-03-04T02:38:22.041Z,2.65
2016-03-04T02:39:22.028Z,2.61
2016-03-04T02:40:22.031Z,2.59
2016-03-04T02:41:22.018Z,2.64
2016-03-04T02:42:22.020Z,2.59
2016-03-04T02:43:22.023Z,2.51
2016-03-04T02:44:22.026Z,2.47
2016-03-04T02:45:22.012Z,2.33
2016-03-04T02:46:22.015Z,2.22
2016-03-04T02:47:22.018Z,2.23
2016-03-04T02:48:22.020Z,2.23
2016-03-04T02:49:22.023Z,2.1
2016-03-04T02:50:22.026Z,2.08
2016-03-04T02:51:22.014Z,2
2016-03-04T02:52:22.016Z,2.07
2016-03-04T02:53:22.019Z,2.1
2016-03-04T02:54:22.036Z,2.12
2016-03-04T02:55:22.024Z,2.07
2016-03-04T02:56:22.027Z,2.14
2016-03-04T02:57:22.014Z,2.15
2016-03-04T02:58:22.017Z,2.05
2016-03-04T02:59:22.035Z,2.04
2016-03-04T03:00:22.022Z,2
2016-03-04T03:01:22.025Z,1.98
2016-03-04T03:02:22.028Z,1.85
2016-03-04T03:03:22.014Z,1.86
2016-03-04T03:04:22.002Z,1.86
2016-03-04T03:05:22.019Z,1.74
2016-03-04T03:06:22.022Z,1.79
2016-03-04T03:07:22.040Z,1.71
2016-03-04T03:08:22.012Z,1.58
2016-03-04T03:09:22.015Z,1.53
2016-03-04T03:10:22.018Z,1.58
2016-03-04T03:11:22.005Z,1.48
2016-03-04T03:12:22.023Z,1.28
2016-03-04T03:13:22.009Z,1.27
2016-03-04T03:14:22.075Z,1.2
2016-03-04T03:15:22.016Z,1.06
2016-03-04T03:16:22.003Z,1.07
2016-03-04T03:17:22.005Z,0.91
2016-03-04T03:18:22.008Z,0.95
2016-03-04T03:19:22.026Z,0.73
2016-03-04T03:20:22.013Z,0.74
2016-03-04T03:21:22.000Z,0.59
2016-03-04T03:22:22.003Z,0.63
2016-03-04T03:23:22.006Z,0.52
2016-03-04T03:24:22.008Z,0.47
2016-03-04T03:25:21.995Z,0.33
2016-03-04T03:26:21.997Z,0.37
2016-03-04T03:27:22.000Z,0.3
2016-03-04T03:28:22.004Z,0.26
2016-03-04T03:29:22.006Z,0.27
2016-03-04T03:30:21.853Z,0.13
2016-03-04T03:31:22.011Z,0.12
2016-03-04T03:32:21.999Z,0.02
2016-03-04T03:33:22.001Z,0.06
2016-03-04T03:34:22.004Z,-0.03
2016-03-04T03:35:22.007Z,-0.06
2016-03-04T03:36:22.010Z,0
2016-03-04T03:37:21.996Z,-0.03
2016-03-04T03:38:22.062Z,-0.09
2016-03-04T03:39:22.001Z,-0.2
2016-03-04T03:40:22.020Z,-0.24
2016-03-04T03:41:21.992Z,-0.31
2016-03-04T03:42:22.010Z,-0.35
2016-03-04T03:43:21.997Z,-0.26
2016-03-04T03:44:21.999Z,-0.31
2016-03-04T03:45:22.018Z,-0.41
2016-03-04T03:46:22.004Z,-0.42
2016-03-04T03:47:21.992Z,-0.39
2016-03-04T03:48:21.995Z,-0.46
2016-03-04T03:49:21.998Z,-0.44
2016-03-04T03:50:21.985Z,-0.6
2016-03-04T03:51:21.987Z,-0.56
2016-03-04T03:52:21.989Z,-0.56
2016-03-04T03:53:22.008Z,-0.62
2016-03-04T03:54:21.981Z,-0.64
2016-03-04T03:55:21.982Z,-0.69
2016-03-04T03:56:21.985Z,-0.82
2016-03-04T03:57:21.972Z,-0.8
2016-03-04T03:58:21.991Z,-0.7
2016-03-04T03:59:21.977Z,-0.72
2016-03-04T04:00:21.980Z,-0.85
2016-03-04T04:01:21.983Z,-0.91
2016-03-04T04:02:21.969Z,-0.91
2016-03-04T04:03:21.972Z,-0.85
2016-03-04T04:04:21.975Z,-0.89
2016-03-04T04:05:21.977Z,-0.87
2016-03-04T04:06:21.965Z,-0.94
2016-03-04T04:07:21.968Z,-1
2016-03-04T04:08:22.018Z,-0.93
2016-03-04T04:09:21.974Z,-1.01
2016-03-04T04:10:21.976Z,-1.04
2016-03-04T04:11:21.963Z,-1.07
2016-03-04T04:12:21.965Z,-1
2016-03-04T04:13:21.984Z,-1.03
2016-03-04T04:14:21.970Z,-1.07
2016-03-04T04:15:21.958Z,-1.06
2016-03-04T04:16:21.977Z,-1.04
2016-03-04T04:17:21.963Z,-1.03
2016-03-04T04:18:21.966Z,-1.07
2016-03-04T04:19:21.953Z,-1.04
2016-03-04T04:20:21.971Z,-1.12
2016-03-04T04:21:21.973Z,-1.15
2016-03-04T04:22:21.962Z,-1.15
2016-03-04T04:23:21.964Z,-1.22
2016-03-04T04:24:21.967Z,-1.3
2016-03-04T04:25:21.984Z,-1.27
2016-03-04T04:26:21.956Z,-1.3
2016-03-04T04:27:21.958Z,-1.3
2016-03-04T04:28:21.947Z,-1.38
2016-03-04T04:29:21.965Z,-1.36
2016-03-04T04:30:21.952Z,-1.39
2016-03-04T04:31:21.954Z,-1.39
2016-03-04T04:32:21.957Z,-1.35
2016-03-04T04:33:21.944Z,-1.38
2016-03-04T04:34:21.946Z,-1.39
2016-03-04T04:35:21.933Z,-1.42
2016-03-04T04:36:21.936Z,-1.43
2016-03-04T04:37:21.955Z,-1.5
2016-03-04T04:38:21.941Z,-1.43
2016-03-04T04:39:21.944Z,-1.43
2016-03-04T04:40:21.946Z,-1.45
2016-03-04T04:41:21.949Z,-1.51
2016-03-04T04:42:21.937Z,-1.45
2016-03-04T04:43:21.939Z,-1.46
2016-03-04T04:44:21.927Z,-1.54
2016-03-04T04:45:21.929Z,-1.53
2016-03-04T04:46:21.932Z,-1.66
2016-03-04T04:47:21.934Z,-1.63
2016-03-04T04:48:21.922Z,-1.56
2016-03-04T04:49:21.956Z,-1.6
2016-03-04T04:50:21.927Z,-1.66
2016-03-04T04:51:21.945Z,-1.69
2016-03-04T04:52:21.932Z,-1.69
2016-03-04T04:53:21.935Z,-1.69
2016-03-04T04:54:21.807Z,-1.66
2016-03-04T04:55:21.923Z,-1.66
2016-03-04T04:56:29.646Z,-1.71
2016-03-04T04:57:21.946Z,-1.63
2016-03-04T04:58:21.916Z,-1.66
2016-03-04T04:59:21.935Z,-1.66
2016-03-04T05:00:21.921Z,-1.66
2016-03-04T05:01:21.940Z,-1.68
2016-03-04T05:02:21.926Z,-1.69
2016-03-04T05:03:21.914Z,-1.76
2016-03-04T05:04:21.918Z,-1.75
2016-03-04T05:05:21.904Z,-1.68
2016-03-04T05:06:21.907Z,-1.68
2016-03-04T05:07:21.925Z,-1.69
2016-03-04T05:08:21.896Z,-1.64
2016-03-04T05:09:21.899Z,-1.64
2016-03-04T05:10:21.902Z,-1.63
2016-03-04T05:11:21.904Z,-1.66
2016-03-04T05:12:21.907Z,-1.6
2016-03-04T05:13:21.894Z,-1.66
2016-03-04T05:14:21.912Z,-1.69
2016-03-04T05:15:21.914Z,-1.69
2016-03-04T05:16:21.903Z,-1.66
2016-03-04T05:17:21.921Z,-1.66
2016-03-04T05:18:21.908Z,-1.63
2016-03-04T05:19:21.895Z,-1.71
2016-03-04T05:20:21.913Z,-1.74
2016-03-04T05:21:21.885Z,-1.71
2016-03-04T05:22:21.903Z,-1.72
2016-03-04T05:23:21.891Z,-1.75
2016-03-04T05:24:21.908Z,-1.69
2016-03-04T05:25:21.880Z,-1.64
2016-03-04T05:26:21.898Z,-1.75
2016-03-04T05:27:21.885Z,-1.69
2016-03-04T05:28:21.887Z,-1.71
2016-03-04T05:29:21.891Z,-1.71
2016-03-04T05:30:21.894Z,-1.72
2016-03-04T05:31:21.880Z,-1.74
2016-03-04T05:32:21.883Z,-1.75
2016-03-04T05:33:21.885Z,-1.79
2016-03-04T05:34:21.873Z,-1.68
2016-03-04T05:35:21.876Z,-1.72
2016-03-04T05:36:21.878Z,-1.68
2016-03-04T05:37:21.881Z,-1.72
2016-03-04T05:38:21.868Z,-1.81
2016-03-04T05:39:21.886Z,-1.82
2016-03-04T05:40:21.857Z,-1.79
2016-03-04T05:41:21.891Z,-1.69
2016-03-04T05:42:21.863Z,-1.78
2016-03-04T05:43:21.866Z,-1.81
2016-03-04T05:44:21.868Z,-1.72
2016-03-04T05:45:21.856Z,-1.78
2016-03-04T05:46:21.858Z,-1.76
2016-03-04T05:47:21.861Z,-1.75
2016-03-04T05:48:21.878Z,-1.75
2016-03-04T05:49:21.850Z,-1.69
2016-03-04T05:50:21.869Z,-1.84
2016-03-04T05:51:21.856Z,-1.79
2016-03-04T05:52:21.843Z,-1.82
2016-03-04T05:53:21.846Z,-1.66
2016-03-04T05:54:21.848Z,-1.74
2016-03-04T05:55:21.852Z,-1.68
2016-03-04T05:56:21.838Z,-1.64
2016-03-04T05:57:21.857Z,-1.72
2016-03-04T05:58:21.844Z,-1.61
2016-03-04T05:59:21.830Z,-1.58
2016-03-04T06:00:21.833Z,-1.5
2016-03-04T06:01:21.835Z,-1.54
2016-03-04T06:02:21.838Z,-1.5
2016-03-04T06:03:21.857Z,-1.5
2016-03-04T06:04:21.829Z,-1.46
2016-03-04T06:05:21.847Z,-1.38
2016-03-04T06:06:21.834Z,-1.35
2016-03-04T06:07:21.821Z,-1.36
2016-03-04T06:08:21.820Z,-1.3
2016-03-04T06:09:21.811Z,-1.25
2016-03-04T06:10:21.801Z,-1.18
2016-03-04T06:11:21.791Z,-1.11
2016-03-04T06:12:21.797Z,-1.15
2016-03-04T06:13:21.756Z,-0.97
2016-03-04T06:14:21.754Z,-0.82
2016-03-04T06:15:21.752Z,-0.75
2016-03-04T06:16:21.736Z,-0.64
2016-03-04T06:17:21.734Z,-0.54
2016-03-04T06:18:21.733Z,-0.28
2016-03-04T06:19:21.734Z,-0.07
2016-03-04T06:20:21.719Z,0.19
2016-03-04T06:21:21.736Z,0.66
2016-03-04T06:22:21.721Z,1.04
2016-03-04T06:23:21.707Z,1.36
2016-03-04T06:24:21.709Z,1.64
2016-03-04T06:25:21.711Z,1.89
2016-03-04T06:26:21.713Z,2.25
2016-03-04T06:27:21.715Z,2.51
2016-03-04T06:28:21.717Z,2.68
2016-03-04T06:29:21.704Z,2.79
2016-03-04T06:30:21.707Z,3.01
2016-03-04T06:31:21.710Z,3.19
2016-03-04T06:32:21.712Z,3.29
2016-03-04T06:33:21.699Z,3.36
2016-03-04T06:34:21.717Z,3.53
2016-03-04T06:35:21.704Z,3.56
2016-03-04T06:36:21.692Z,3.76
2016-03-04T06:37:21.695Z,3.99
2016-03-04T06:38:21.697Z,4.16
2016-03-04T06:39:21.700Z,4.36
2016-03-04T06:40:21.687Z,4.49
2016-03-04T06:41:21.705Z,4.67
2016-03-04T06:42:21.692Z,4.64
2016-03-04T06:43:21.711Z,4.78
2016-03-04T06:44:21.698Z,4.78
2016-03-04T06:45:21.700Z,4.68
2016-03-04T06:46:21.687Z,4.7
2016-03-04T06:47:21.689Z,4.7
2016-03-04T06:48:21.692Z,4.71
2016-03-04T06:49:21.710Z,4.71
2016-03-04T06:50:21.698Z,4.78
2016-03-04T06:51:21.717Z,4.97
2016-03-04T06:52:21.703Z,5.02
2016-03-04T06:53:21.706Z,5.16
2016-03-04T06:54:21.708Z,5.22
2016-03-04T06:55:21.696Z,5.33
2016-03-04T06:56:21.714Z,5.46
2016-03-04T06:57:21.716Z,5.65
2016-03-04T06:58:21.751Z,5.8
2016-03-04T06:59:21.707Z,5.95
2016-03-04T07:00:21.724Z,5.98
2016-03-04T07:01:21.727Z,6.07
2016-03-04T07:02:21.698Z,6.15
2016-03-04T07:03:21.702Z,6.28
2016-03-04T07:04:21.704Z,6.52
2016-03-04T07:05:21.707Z,6.85
2016-03-04T07:06:23.038Z,7.07
2016-03-04T07:07:22.354Z,7.21
2016-03-04T07:08:22.746Z,7.5
2016-03-04T07:09:22.858Z,7.78
2016-03-04T07:10:22.830Z,8.11
2016-03-04T07:11:23.145Z,8.49
2016-03-04T07:12:23.445Z,8.71
2016-03-04T07:13:23.448Z,8.77
2016-03-04T07:14:23.435Z,8.93
2016-03-04T07:15:23.500Z,9.02
2016-03-04T07:16:23.455Z,9.19
2016-03-04T07:17:23.442Z,9.54
2016-03-04T07:18:23.492Z,9.88
2016-03-04T07:19:23.432Z,10.46
2016-03-04T07:20:23.450Z,10.77
2016-03-04T07:21:21.735Z,10.95
2016-03-04T07:22:23.456Z,11.15
2016-03-04T07:23:23.458Z,11.43
2016-03-04T07:24:23.102Z,11.71
2016-03-04T07:25:23.074Z,12.11
2016-03-04T07:26:23.091Z,12.3
2016-03-04T07:27:23.063Z,12.47
2016-03-04T07:28:22.924Z,12.43
2016-03-04T07:29:22.912Z,12.37
2016-03-04T07:30:22.774Z,12.35
2016-03-04T07:31:22.870Z,12.14
2016-03-04T07:32:22.749Z,11.85
2016-03-04T07:33:22.923Z,11.8
2016-03-04T07:34:22.926Z,11.76
2016-03-04T07:35:23.163Z,11.96
2016-03-04T07:36:23.275Z,12.11
2016-03-04T07:37:23.496Z,12.33
2016-03-04T07:38:23.514Z,12.35
2016-03-04T07:39:23.534Z,12.48
2016-03-04T07:40:23.520Z,12.66
2016-03-04T07:41:23.601Z,12.8
2016-03-04T07:42:21.791Z,13.06
2016-03-04T07:43:21.794Z,13.08
2016-03-04T07:44:21.797Z,13.03
2016-03-04T07:45:21.861Z,12.9
2016-03-04T07:46:21.803Z,12.7
2016-03-04T07:47:21.805Z,12.36
2016-03-04T07:48:21.807Z,11.99
2016-03-04T07:49:21.810Z,11.71
2016-03-04T07:50:21.813Z,11.49
2016-03-04T07:51:21.815Z,11.15
2016-03-04T07:52:21.818Z,11.07
2016-03-04T07:53:21.820Z,10.94
2016-03-04T07:54:21.824Z,10.84
2016-03-04T07:55:21.826Z,10.67
2016-03-04T07:56:21.829Z,10.68
2016-03-04T07:57:21.832Z,10.55
2016-03-04T07:58:21.849Z,10.79
2016-03-04T07:59:21.852Z,10.97
2016-03-04T08:00:21.871Z,11.18
2016-03-04T08:01:21.858Z,11.4
2016-03-04T08:02:21.907Z,11.38
2016-03-04T08:03:21.862Z,11.44
2016-03-04T08:04:21.866Z,11.45
2016-03-04T08:05:21.868Z,11.31
2016-03-04T08:06:21.871Z,11.26
2016-03-04T08:07:21.890Z,11.22
2016-03-04T08:08:21.876Z,11.38
2016-03-04T08:09:21.895Z,11.37
2016-03-04T08:10:21.881Z,11.62
2016-03-04T08:11:21.901Z,11.95
2016-03-04T08:12:21.903Z,12.08
2016-03-04T08:13:21.905Z,12.4
2016-03-04T08:14:21.908Z,12.54
2016-03-04T08:15:21.801Z,12.73
2016-03-04T08:16:21.914Z,12.81
2016-03-04T08:17:21.932Z,13.11
2016-03-04T08:18:21.920Z,13.11
2016-03-04T08:19:21.937Z,13.16
2016-03-04T08:20:22.002Z,13.02
2016-03-04T08:21:21.942Z,12.95
2016-03-04T08:22:21.945Z,12.87
2016-03-04T08:23:21.964Z,12.86
2016-03-04T08:24:21.950Z,12.86
2016-03-04T08:25:21.953Z,13.09
2016-03-04T08:26:21.955Z,13.28
2016-03-04T08:27:21.958Z,13.23
2016-03-04T08:28:21.961Z,13.2
2016-03-04T08:29:21.964Z,13.24
2016-03-04T08:30:21.966Z,13.13
2016-03-04T08:31:21.969Z,13.12
2016-03-04T08:32:22.035Z,12.84
2016-03-04T08:33:21.990Z,12.36
2016-03-04T08:34:21.993Z,12.03
2016-03-04T08:35:21.996Z,11.74
2016-03-04T08:36:21.998Z,11.51
2016-03-04T08:37:22.017Z,11.18
2016-03-04T08:38:22.020Z,10.94
2016-03-04T08:39:22.007Z,10.77
2016-03-04T08:40:22.025Z,10.57
2016-03-04T08:41:22.028Z,10.33
2016-03-04T08:42:22.046Z,9.95
2016-03-04T08:43:22.033Z,9.74
2016-03-04T08:44:22.036Z,9.48
2016-03-04T08:45:22.039Z,9.11
2016-03-04T08:46:22.041Z,8.9
2016-03-04T08:47:22.059Z,8.86
2016-03-04T08:48:22.047Z,8.77
2016-03-04T08:49:22.081Z,8.61
2016-03-04T08:50:22.052Z,8.49
2016-03-04T08:51:22.070Z,8.27
2016-03-04T08:52:22.073Z,8.21
2016-03-04T08:53:22.075Z,8.14
2016-03-04T08:54:22.109Z,8.23
2016-03-04T08:55:22.081Z,8.14
2016-03-04T08:56:22.099Z,8.21
2016-03-04T08:57:22.086Z,8.24
2016-03-04T08:58:21.949Z,8.21
2016-03-04T08:59:22.091Z,8.17
2016-03-04T09:00:22.094Z,8.18
2016-03-04T09:01:22.097Z,8.08
2016-03-04T09:02:22.146Z,8.05
2016-03-04T09:03:22.118Z,7.78
2016-03-04T09:04:22.120Z,7.67
2016-03-04T09:05:22.124Z,7.61
2016-03-04T09:06:22.127Z,7.44
2016-03-04T09:07:22.145Z,7.37
2016-03-04T09:08:22.148Z,7.26
2016-03-04T09:09:22.135Z,7.29
2016-03-04T09:10:22.153Z,7.41
2016-03-04T09:11:22.156Z,7.31
2016-03-04T09:12:22.158Z,7.15
2016-03-04T09:13:22.178Z,7.23
2016-03-04T09:14:22.149Z,7.36
2016-03-04T09:15:22.167Z,7.43
2016-03-04T09:16:22.169Z,7.47
2016-03-04T09:17:22.172Z,7.53
2016-03-04T09:18:22.174Z,7.51
2016-03-04T09:19:22.177Z,7.61
2016-03-04T09:20:22.195Z,7.78
2016-03-04T09:21:22.183Z,7.84
2016-03-04T09:22:22.185Z,8.05
2016-03-04T09:23:22.188Z,8.05
2016-03-04T09:24:22.191Z,7.99
2016-03-04T09:25:22.209Z,8.11
2016-03-04T09:26:22.196Z,8.06
2016-03-04T09:27:22.231Z,8.18
2016-03-04T09:28:22.217Z,8.46
2016-03-04T09:29:22.220Z,8.72
2016-03-04T09:30:22.223Z,8.99
2016-03-04T09:31:22.225Z,9.08
2016-03-04T09:32:22.229Z,9.02
2016-03-04T09:33:22.231Z,8.93
2016-03-04T09:34:22.233Z,9
2016-03-04T09:35:22.236Z,9.05
2016-03-04T09:36:22.239Z,9.11
2016-03-04T09:37:22.289Z,9.26
2016-03-04T09:38:22.244Z,9.12
2016-03-04T09:39:22.247Z,9.12
2016-03-04T09:40:22.250Z,9.13
2016-03-04T09:41:22.253Z,9.26
2016-03-04T09:42:22.271Z,9.13
2016-03-04T09:43:22.258Z,9.09
2016-03-04T09:44:22.260Z,9.05
2016-03-04T09:45:22.279Z,9.02
2016-03-04T09:46:22.266Z,9.02
2016-03-04T09:47:22.268Z,9.05
2016-03-04T09:48:22.287Z,8.84
2016-03-04T09:49:22.290Z,8.97
2016-03-04T09:50:22.277Z,8.96
2016-03-04T09:51:22.327Z,8.89
2016-03-04T09:52:22.298Z,8.89
2016-03-04T09:53:22.300Z,8.71
2016-03-04T09:54:22.304Z,8.71
2016-03-04T09:55:22.306Z,8.64
2016-03-04T09:56:22.308Z,8.54
2016-03-04T09:57:22.312Z,8.45
2016-03-04T09:58:22.329Z,8.39
2016-03-04T09:59:22.332Z,8.32
2016-03-04T10:00:22.679Z,8.28
2016-03-04T10:01:22.322Z,8.2
2016-03-04T10:02:22.340Z,8.11
2016-03-04T10:03:22.343Z,7.96
2016-03-04T10:04:22.330Z,8.03
2016-03-04T10:05:22.347Z,8.02
2016-03-04T10:06:22.351Z,8.02
2016-03-04T10:07:22.353Z,7.98
2016-03-04T10:08:22.341Z,7.98
2016-03-04T10:09:22.359Z,7.91
2016-03-04T10:10:22.361Z,7.98
2016-03-04T10:11:22.364Z,8.09
2016-03-04T10:12:22.383Z,7.99
2016-03-04T10:13:22.369Z,8.09
2016-03-04T10:14:22.372Z,8.16
2016-03-04T10:15:22.391Z,8.09
2016-03-04T10:16:22.377Z,8.11
2016-03-04T10:17:22.381Z,8.31
2016-03-04T10:18:22.383Z,8.41
2016-03-04T10:19:22.401Z,8.42
2016-03-04T10:20:22.811Z,8.57
2016-03-04T10:21:22.407Z,8.49
2016-03-04T10:22:22.393Z,8.52
2016-03-04T10:23:22.397Z,8.44
2016-03-04T10:24:22.399Z,8.28
2016-03-04T10:25:22.418Z,8.31
2016-03-04T10:26:22.404Z,8.23
2016-03-04T10:27:22.407Z,8.23
2016-03-04T10:28:22.410Z,8.21
2016-03-04T10:29:22.428Z,8.18
2016-03-04T10:30:22.415Z,8.2
2016-03-04T10:31:22.261Z,8.18
2016-03-04T10:32:22.421Z,8.26
2016-03-04T10:33:22.423Z,8.21
2016-03-04T10:34:22.426Z,8.27
2016-03-04T10:35:22.445Z,8.36
2016-03-04T10:36:22.463Z,8.42
2016-03-04T10:37:22.450Z,8.54
2016-03-04T10:38:22.453Z,8.59
2016-03-04T10:39:22.439Z,8.6
2016-03-04T10:40:22.442Z,8.53
2016-03-04T10:41:22.445Z,8.53
2016-03-04T10:42:22.463Z,8.59
2016-03-04T10:43:22.450Z,8.68
2016-03-04T10:44:22.499Z,8.74
2016-03-04T10:45:22.456Z,9
2016-03-04T10:46:22.458Z,9.09
2016-03-04T10:47:22.460Z,9.26
2016-03-04T10:48:22.480Z,9.4
2016-03-04T10:49:22.482Z,9.48
2016-03-04T10:50:22.485Z,9.42
2016-03-04T10:51:22.472Z,9.51
2016-03-04T10:52:22.475Z,9.45
2016-03-04T10:53:22.493Z,9.56
2016-03-04T10:54:22.496Z,9.62
2016-03-04T10:55:22.482Z,9.59
2016-03-04T10:56:22.501Z,9.51
2016-03-04T10:57:22.504Z,9.27
2016-03-04T10:58:22.507Z,9.16
2016-03-04T10:59:22.493Z,9.02
2016-03-04T11:00:22.495Z,8.92
2016-03-04T11:01:22.515Z,8.95
2016-03-04T11:02:22.517Z,8.86
2016-03-04T11:03:22.519Z,8.81
2016-03-04T11:04:22.507Z,8.86
2016-03-04T11:05:22.526Z,8.9
2016-03-04T11:06:22.528Z,8.89
2016-03-04T11:07:22.530Z,9
2016-03-04T11:08:22.534Z,9.02
2016-03-04T11:09:22.552Z,9.11
2016-03-04T11:10:22.554Z,9.15
2016-03-04T11:11:22.542Z,9.21
2016-03-04T11:12:22.575Z,9.24
2016-03-04T11:13:22.547Z,9.16
2016-03-04T11:14:22.566Z,9.22
2016-03-04T11:15:22.552Z,9.19
2016-03-04T11:16:22.555Z,9.12
2016-03-04T11:17:22.557Z,9.16
2016-03-04T11:18:22.560Z,9.22
2016-03-04T11:19:22.579Z,9.31
2016-03-04T11:20:22.565Z,9.26
2016-03-04T11:21:22.585Z,9.26
2016-03-04T11:22:22.571Z,9.26
2016-03-04T11:23:22.573Z,9.22
2016-03-04T11:24:22.593Z,9.39
2016-03-04T11:25:22.579Z,9.49
2016-03-04T11:26:22.582Z,9.62
2016-03-04T11:27:22.600Z,9.77
2016-03-04T11:28:22.604Z,9.94
2016-03-04T11:29:22.606Z,10
2016-03-04T11:30:22.592Z,10.18
2016-03-04T11:31:22.595Z,10.31
2016-03-04T11:32:22.614Z,10.46
2016-03-04T11:33:22.600Z,10.57
2016-03-04T11:34:22.603Z,10.61
2016-03-04T11:35:22.465Z,10.68
2016-03-04T11:36:22.609Z,10.62
2016-03-04T11:37:22.611Z,10.68
2016-03-04T11:38:22.614Z,10.77
2016-03-04T11:39:22.617Z,10.9
2016-03-04T11:40:22.635Z,11
2016-03-04T11:41:22.622Z,11.15
2016-03-04T11:42:22.641Z,11.18
2016-03-04T11:43:22.644Z,11.18
2016-03-04T11:44:22.630Z,11.3
2016-03-04T11:45:22.632Z,11.44
2016-03-04T11:46:22.652Z,11.51
2016-03-04T11:47:22.638Z,11.76
2016-03-04T11:48:22.657Z,11.96
2016-03-04T11:49:22.660Z,12.1
2016-03-04T11:50:22.663Z,12.14
2016-03-04T11:51:22.665Z,12.14
2016-03-04T11:52:22.667Z,12.07
2016-03-04T11:53:22.671Z,12.07
2016-03-04T11:54:22.673Z,12.1
2016-03-04T11:55:22.675Z,12.2
2016-03-04T11:56:22.678Z,12.17
2016-03-04T11:57:22.681Z,12.17
2016-03-04T11:58:22.684Z,12.35
2016-03-04T11:59:22.670Z,12.48
2016-03-04T12:00:22.735Z,12.57
2016-03-04T12:01:22.692Z,12.36
2016-03-04T12:02:22.694Z,12.29
2016-03-04T12:03:22.697Z,12.32
2016-03-04T12:04:22.700Z,12.33
2016-03-04T12:05:22.703Z,12.35
2016-03-04T12:06:22.705Z,12.48
2016-03-04T12:07:22.692Z,12.65
2016-03-04T12:08:22.710Z,12.65
2016-03-04T12:09:22.713Z,12.83
2016-03-04T12:10:22.716Z,12.95
2016-03-04T12:11:22.719Z,13.03
2016-03-04T12:12:22.721Z,13.01
2016-03-04T12:13:22.724Z,13.06
2016-03-04T12:14:22.727Z,13.17
2016-03-04T12:15:22.713Z,13.24
2016-03-04T12:16:22.778Z,13.2
2016-03-04T12:17:22.735Z,13.31
2016-03-04T12:18:22.738Z,13.39
2016-03-04T12:19:22.740Z,13.46
2016-03-04T12:20:22.743Z,13.47
2016-03-04T12:21:22.746Z,13.54
2016-03-04T12:22:22.748Z,13.62
2016-03-04T12:23:22.766Z,13.64
2016-03-04T12:24:22.737Z,13.67
2016-03-04T12:25:22.757Z,13.62
2016-03-04T12:26:22.774Z,13.55
2016-03-04T12:27:22.745Z,13.55
2016-03-04T12:28:22.765Z,13.62
2016-03-04T12:29:22.767Z,13.58
2016-03-04T12:30:22.770Z,13.52
2016-03-04T12:31:22.787Z,13.46
2016-03-04T12:32:22.776Z,13.49
2016-03-04T12:33:22.778Z,13.33
2016-03-04T12:34:22.780Z,13.23
2016-03-04T12:35:22.784Z,13.16
2016-03-04T12:36:22.785Z,13.16
2016-03-04T12:37:22.789Z,13.12
2016-03-04T12:38:22.791Z,13.06
2016-03-04T12:39:22.794Z,13.21
2016-03-04T12:40:22.797Z,13.16
2016-03-04T12:41:22.799Z,13.28
2016-03-04T12:42:22.802Z,13.27
2016-03-04T12:43:22.804Z,13.06
2016-03-04T12:44:22.792Z,12.93
2016-03-04T12:45:22.810Z,12.99
2016-03-04T12:46:22.844Z,13.05
2016-03-04T12:47:22.815Z,13.02
2016-03-04T12:48:22.818Z,13.11
2016-03-04T12:49:22.821Z,13.03
2016-03-04T12:50:22.838Z,12.94
2016-03-04T12:51:22.826Z,12.9
2016-03-04T12:52:22.829Z,12.81
2016-03-04T12:53:22.832Z,12.55
2016-03-04T12:54:22.834Z,12.3
2016-03-04T12:55:22.837Z,11.97
2016-03-04T12:56:22.840Z,11.6
2016-03-04T12:57:22.842Z,11.37
2016-03-04T12:58:22.845Z,11.25
2016-03-04T12:59:22.848Z,11.13
2016-03-04T13:00:22.866Z,11.1
2016-03-04T13:01:22.853Z,11.04
2016-03-04T13:02:22.856Z,11.18
2016-03-04T13:03:22.873Z,11.18
2016-03-04T13:04:22.861Z,11.22
2016-03-04T13:05:22.864Z,11.33
2016-03-04T13:06:22.882Z,11.33
2016-03-04T13:07:22.869Z,11.35
2016-03-04T13:08:22.872Z,11.43
2016-03-04T13:09:22.875Z,11.62
2016-03-04T13:10:22.877Z,11.65